Time;durP1;ratioP1;P1;durP2;ratioP2;P2;SDS_P1;SDS_P2;PMS_P1;PMS_P2;Temp;Humidity;BMP_temperature;BMP_pressure;BME280_temperature;BME280_humidity;BME280_pressure;Samples;Min_cycle;Max_cycle;Signal;HPM_P1;HPM_P2
2023/03/06 00:02:56;;;;;;;7.17;4.77;;;;;;;3.61;47.70;97057.38;6289143;28;20599;-36
2023/03/06 00:05:58;;;;;;;6.87;4.30;;;;;;;3.67;47.36;97050.44;6286193;28;20343;-36
2023/03/06 00:09:01;;;;;;;6.77;4.60;;;;;;;3.66;46.94;97057.53;6290812;28;20600;-36
2023/03/06 00:12:03;;;;;;;6.53;4.53;;;;;;;3.57;47.25;97048.28;6279394;28;20279;-36
2023/03/06 00:15:06;;;;;;;5.77;4.13;;;;;;;3.52;46.78;97056.81;6272698;28;20218;-36
2023/03/06 00:18:08;;;;;;;7.63;4.60;;;;;;;3.55;46.74;97059.03;6293497;28;20212;-36
2023/03/06 00:21:10;;;;;;;6.33;3.43;;;;;;;3.56;45.97;97051.94;6288519;28;20625;-36
2023/03/06 00:24:12;;;;;;;5.20;3.80;;;;;;;3.62;46.30;97048.44;6286474;28;20253;-35
2023/03/06 00:27:14;;;;;;;6.40;3.93;;;;;;;3.40;46.38;97021.66;6289541;28;20381;-36
2023/03/06 00:30:22;;;;;;;6.60;4.10;;;;;;;3.32;46.39;97030.59;6271236;28;20215;-36
2023/03/06 00:33:24;;;;;;;6.63;3.77;;;;;;;3.42;46.56;97042.50;6256032;28;20587;-36
2023/03/06 00:36:27;;;;;;;6.80;3.50;;;;;;;3.50;45.97;97043.06;6295789;28;20235;-36
2023/03/06 00:39:29;;;;;;;5.83;3.60;;;;;;;3.22;46.12;97029.47;6292308;28;20222;-36
2023/03/06 00:42:31;;;;;;;5.27;3.27;;;;;;;3.29;46.35;97038.91;6291256;28;20230;-36
2023/03/06 00:45:33;;;;;;;5.83;3.13;;;;;;;3.33;46.41;97034.84;6299949;28;20249;-36
2023/03/06 00:48:36;;;;;;;5.97;3.30;;;;;;;3.05;46.36;97011.53;6280663;28;20719;-36
2023/03/06 00:51:37;;;;;;;4.13;3.20;;;;;;;3.29;46.44;97033.66;6278236;28;20227;-36
2023/03/06 00:54:40;;;;;;;5.57;3.70;;;;;;;2.84;45.82;96951.31;6299748;28;20362;-36
2023/03/06 00:57:42;;;;;;;4.03;3.07;;;;;;;3.33;45.99;97028.78;6295317;28;20317;-35
2023/03/06 01:00:44;;;;;;;4.00;2.83;;;;;;;3.31;45.64;97030.81;6295818;28;20231;-36
2023/03/06 01:03:46;;;;;;;6.23;3.13;;;;;;;3.27;45.20;97022.53;6292562;28;20230;-36
2023/03/06 01:06:49;;;;;;;5.33;2.90;;;;;;;3.31;45.62;97023.72;6296425;28;20575;-36
2023/03/06 01:09:51;;;;;;;4.03;2.83;;;;;;;3.28;44.98;97021.50;6293544;28;20694;-36
2023/03/06 01:12:54;;;;;;;4.50;3.10;;;;;;;3.31;44.70;97018.47;6275359;28;20367;-36
2023/03/06 01:16:07;;;;;;;5.27;3.20;;;;;;;3.37;45.15;97011.53;6292475;28;20226;-36
2023/03/06 01:19:09;;;;;;;5.07;2.47;;;;;;;3.42;44.86;96997.75;6274499;28;20261;-36
2023/03/06 01:22:12;;;;;;;5.33;2.97;;;;;;;3.44;44.90;96993.06;6293143;28;20294;-36
2023/03/06 01:25:14;;;;;;;4.73;2.80;;;;;;;3.41;44.77;96993.50;6294464;28;20226;-36
2023/03/06 01:28:16;;;;;;;4.23;2.73;;;;;;;3.34;44.57;96990.91;6274100;28;20221;-36
2023/03/06 01:31:18;;;;;;;4.07;2.50;;;;;;;3.41;45.27;96990.88;6282066;28;20705;-36
2023/03/06 01:34:20;;;;;;;4.20;2.57;;;;;;;3.33;44.80;96986.66;6289524;28;20243;-36
2023/03/06 01:37:22;;;;;;;4.30;2.60;;;;;;;3.34;44.23;96985.63;6293564;28;20226;-36
2023/03/06 01:40:24;;;;;;;3.90;2.40;;;;;;;3.34;45.53;96983.81;6280124;28;20796;-36
2023/03/06 01:43:30;;;;;;;3.83;2.47;;;;;;;3.37;45.86;96979.94;6292800;28;20230;-36
2023/03/06 01:46:32;;;;;;;3.27;2.03;;;;;;;3.41;46.20;96981.16;6276090;28;20284;-39
2023/03/06 01:49:40;;;;;;;3.93;2.60;;;;;;;3.46;45.96;96976.03;6289835;28;20245;-39
2023/03/06 01:52:51;;;;;;;4.70;2.93;;;;;;;3.12;46.44;96927.28;6294608;28;20229;-39
2023/03/06 01:55:53;;;;;;;4.67;2.73;;;;;;;3.40;45.49;96974.28;6276793;28;20233;-39
2023/03/06 01:58:57;;;;;;;3.23;2.50;;;;;;;3.41;46.44;96975.06;6280401;28;20217;-40
2023/03/06 02:02:01;;;;;;;3.87;2.63;;;;;;;3.31;46.29;96975.53;6273126;28;20222;-51
2023/03/06 02:05:07;;;;;;;2.53;1.93;;;;;;;3.39;46.82;96971.84;6292400;28;20231;-40
2023/03/06 02:08:12;;;;;;;4.30;2.63;;;;;;;3.48;47.00;96960.03;6292992;28;20731;-37
2023/03/06 02:11:18;;;;;;;4.60;2.40;;;;;;;3.52;47.33;96967.28;6270368;28;20222;-36
2023/03/06 02:14:21;;;;;;;3.17;2.33;;;;;;;3.55;47.25;96956.34;6296036;28;20233;-36
2023/03/06 02:17:24;;;;;;;3.70;2.30;;;;;;;3.58;46.89;96965.63;6297486;28;20230;-40
2023/03/06 02:20:47;;;;;;;3.60;2.17;;;;;;;3.53;48.32;96965.44;6284531;28;20230;-36
2023/03/06 02:23:55;;;;;;;3.27;2.07;;;;;;;3.52;47.63;96963.84;6288305;28;20602;-37
2023/03/06 02:26:59;;;;;;;3.53;2.27;;;;;;;3.41;45.99;96951.38;6291944;28;20284;-36
2023/03/06 02:30:07;;;;;;;3.70;2.37;;;;;;;3.40;46.81;96940.06;6275082;28;20238;-36
2023/03/06 02:33:15;;;;;;;2.10;1.70;;;;;;;3.24;46.36;96922.94;6281364;28;20206;-36
2023/03/06 02:36:17;;;;;;;4.03;2.63;;;;;;;3.42;45.54;96945.09;6290290;28;20210;-36
2023/03/06 02:39:22;;;;;;;4.07;2.17;;;;;;;3.40;45.38;96947.13;6270006;28;20222;-36
2023/03/06 02:42:27;;;;;;;4.93;2.50;;;;;;;3.42;45.77;96947.72;6290277;28;20226;-36
2023/03/06 02:45:35;;;;;;;5.27;2.80;;;;;;;3.42;45.04;96935.34;6292311;28;20230;-36
2023/03/06 02:48:37;;;;;;;2.93;2.43;;;;;;;3.39;44.52;96933.16;6286978;28;20238;-37
2023/03/06 02:51:39;;;;;;;3.70;2.90;;;;;;;3.35;44.69;96926.72;6273273;28;20623;-36
2023/03/06 02:54:41;;;;;;;5.63;2.80;;;;;;;3.33;44.96;96928.75;6275076;28;20721;-36
2023/03/06 02:57:43;;;;;;;2.87;2.33;;;;;;;3.08;45.03;96890.06;6289910;28;20231;-36
2023/03/06 03:00:50;;;;;;;3.50;2.30;;;;;;;3.33;44.42;96924.28;6276786;28;20249;-36
2023/03/06 03:03:53;;;;;;;3.40;2.17;;;;;;;3.35;45.66;96924.09;6271726;28;20226;-39
2023/03/06 03:06:55;;;;;;;4.23;2.57;;;;;;;3.16;45.37;96896.91;6291561;28;20321;-37
2023/03/06 03:09:59;;;;;;;3.57;2.50;;;;;;;3.41;46.31;96922.41;6276602;28;20787;-40
2023/03/06 03:13:01;;;;;;;3.87;2.20;;;;;;;3.38;47.16;96923.63;6289782;28;20233;-44
2023/03/06 03:16:09;;;;;;;2.93;2.10;;;;;;;3.35;47.94;96911.72;6291146;28;20324;-37
2023/03/06 03:19:12;;;;;;;3.20;2.10;;;;;;;3.28;49.08;96915.41;6271267;28;20695;-41
2023/03/06 03:22:14;;;;;;;3.30;2.07;;;;;;;3.12;49.80;96905.44;6269372;28;20608;-36
2023/03/06 03:25:19;;;;;;;4.20;2.53;;;;;;;3.00;50.40;96911.34;6276149;28;20236;-37
2023/03/06 03:28:22;;;;;;;3.00;2.23;;;;;;;2.91;50.50;96910.03;6290872;28;20226;-39
2023/03/06 03:31:24;;;;;;;3.77;2.23;;;;;;;2.81;51.33;96905.22;6291635;28;20232;-40
2023/03/06 03:34:27;;;;;;;2.73;1.67;;;;;;;2.49;50.84;96859.66;6273119;28;20283;-40
2023/03/06 03:37:29;;;;;;;2.67;1.87;;;;;;;2.77;50.90;96897.97;6273507;28;20293;-37
2023/03/06 03:40:32;;;;;;;4.40;2.30;;;;;;;2.66;52.00;96898.59;6273788;28;20634;-40
2023/03/06 03:43:34;;;;;;;5.70;2.43;;;;;;;2.22;53.33;96842.44;6292535;28;20249;-38
2023/03/06 03:46:37;;;;;;;3.87;2.27;;;;;;;2.44;54.15;96895.50;6290865;28;20231;-40
2023/03/06 03:49:44;;;;;;;3.43;2.43;;;;;;;2.29;55.11;96891.31;6275711;28;20837;-43
2023/03/06 03:52:46;;;;;;;3.27;2.30;;;;;;;2.14;55.06;96888.13;6288043;28;20228;-39
2023/03/06 03:55:48;;;;;;;4.20;2.23;;;;;;;2.08;54.95;96881.09;6289860;28;20362;-40
2023/03/06 03:58:53;;;;;;;3.50;2.53;;;;;;;2.08;54.67;96885.53;6271748;28;20597;-42
2023/03/06 04:01:56;;;;;;;5.13;3.13;;;;;;;2.02;54.47;96884.53;6273326;28;20598;-37
2023/03/06 04:04:58;;;;;;;5.20;2.20;;;;;;;1.91;55.38;96899.09;6269363;28;20447;-42
2023/03/06 04:08:02;;;;;;;4.03;2.47;;;;;;;1.91;54.72;96882.53;6270660;28;20235;-37
2023/03/06 04:11:05;;;;;;;3.27;2.30;;;;;;;1.89;55.22;96881.97;6276215;28;20229;-39
2023/03/06 04:14:08;;;;;;;4.17;2.67;;;;;;;1.81;56.03;96882.97;6305791;28;20236;-36
2023/03/06 04:17:11;;;;;;;3.10;2.20;;;;;;;1.68;56.64;96880.41;6278524;28;20232;-38
2023/03/06 04:20:13;;;;;;;5.27;2.60;;;;;;;1.61;57.17;96877.75;6280436;28;20340;-40
2023/03/06 04:23:17;;;;;;;6.40;2.57;;;;;;;1.59;56.78;96879.78;6278837;28;20231;-43
2023/03/06 04:26:19;;;;;;;5.67;3.03;;;;;;;1.58;56.63;96878.19;6274703;28;20263;-39
2023/03/06 04:29:22;;;;;;;4.33;2.83;;;;;;;1.55;56.10;96882.00;6279078;28;20227;-36
2023/03/06 04:32:24;;;;;;;3.20;2.47;;;;;;;1.57;55.45;96865.25;6274865;28;20742;-41
2023/03/06 04:35:26;;;;;;;4.27;2.73;;;;;;;1.56;56.13;96867.06;6279417;28;20226;-36
2023/03/06 04:38:34;;;;;;;5.67;2.87;;;;;;;1.48;57.28;96862.06;6275126;28;20230;-37
2023/03/06 04:41:39;;;;;;;5.23;3.30;;;;;;;1.41;57.60;96866.50;6309663;28;20224;-36
2023/03/06 04:44:41;;;;;;;3.63;2.40;;;;;;;1.41;57.56;96858.63;6294400;28;20237;-38
2023/03/06 04:47:43;;;;;;;5.40;3.17;;;;;;;1.44;57.14;96855.59;6291351;28;20222;-36
2023/03/06 04:50:45;;;;;;;6.20;2.57;;;;;;;1.47;57.56;96855.97;6293744;28;20226;-38
2023/03/06 04:53:47;;;;;;;5.63;2.73;;;;;;;1.51;57.65;96861.63;6295656;28;20229;-42
2023/03/06 04:56:49;;;;;;;5.13;3.00;;;;;;;1.50;57.78;96857.41;6292688;28;20783;-38
2023/03/06 04:59:51;;;;;;;5.10;2.63;;;;;;;1.48;58.05;96847.13;6294339;28;20439;-37
2023/03/06 05:02:53;;;;;;;5.73;2.73;;;;;;;1.45;57.79;96838.84;6297806;28;20361;-37
2023/03/06 05:05:56;;;;;;;4.43;2.33;;;;;;;1.45;58.03;96839.63;6293512;28;20580;-41
2023/03/06 05:08:58;;;;;;;4.53;2.70;;;;;;;1.42;57.72;96833.97;6295319;28;20227;-38
2023/03/06 05:12:00;;;;;;;3.03;2.00;;;;;;;1.20;57.96;96805.38;6293269;28;20695;-36
2023/03/06 05:15:03;;;;;;;3.57;2.30;;;;;;;1.38;58.06;96832.78;6291531;28;20598;-37
2023/03/06 05:18:05;;;;;;;3.67;2.40;;;;;;;1.13;58.97;96793.25;6292114;28;20744;-36
2023/03/06 05:21:08;;;;;;;5.60;3.27;;;;;;;1.39;58.57;96831.78;6293400;28;20220;-39
2023/03/06 05:24:10;;;;;;;5.77;3.83;;;;;;;1.37;58.83;96828.53;6292771;28;20220;-42
2023/03/06 05:27:12;;;;;;;5.83;4.27;;;;;;;1.36;59.39;96824.31;6298139;28;20325;-39
2023/03/06 05:30:20;;;;;;;6.10;3.70;;;;;;;1.38;59.40;96823.09;6292736;28;20637;-42
2023/03/06 05:33:22;;;;;;;8.00;3.30;;;;;;;1.41;59.49;96829.75;6294294;28;20278;-36
2023/03/06 05:36:24;;;;;;;4.37;2.97;;;;;;;1.27;58.85;96811.41;6308436;28;20580;-37
2023/03/06 05:39:29;;;;;;;5.47;3.33;;;;;;;1.44;58.87;96832.78;6288091;28;20224;-37
2023/03/06 05:42:31;;;;;;;5.17;3.10;;;;;;;1.06;59.40;96782.78;6282199;28;20318;-36
2023/03/06 05:45:34;;;;;;;6.50;3.80;;;;;;;1.47;59.71;96831.56;6297586;28;20266;-36
2023/03/06 05:48:36;;;;;;;5.70;3.50;;;;;;;1.50;59.21;96823.28;6291228;28;20310;-42
2023/03/06 05:51:38;;;;;;;8.33;4.17;;;;;;;1.53;58.87;96825.50;6291144;28;20312;-36
2023/03/06 05:54:40;;;;;;;4.30;2.80;;;;;;;1.58;58.61;96833.56;6291630;28;20580;-37
2023/03/06 05:57:42;;;;;;;6.03;3.77;;;;;;;1.55;58.79;96824.28;6292181;28;20279;-41
2023/03/06 06:00:44;;;;;;;4.30;2.80;;;;;;;1.65;58.09;96836.16;6293904;28;20246;-36
2023/03/06 06:03:46;;;;;;;4.83;3.10;;;;;;;1.49;57.97;96793.59;6291165;28;20228;-41
2023/03/06 06:06:54;;;;;;;5.40;3.37;;;;;;;1.45;57.55;96791.59;6288568;28;20719;-44
2023/03/06 06:09:56;;;;;;;4.83;3.03;;;;;;;1.81;57.41;96836.50;6288508;28;20227;-37
2023/03/06 06:12:58;;;;;;;6.00;3.33;;;;;;;1.85;57.27;96830.84;6289824;28;20244;-37
2023/03/06 06:16:06;;;;;;;4.40;3.20;;;;;;;1.91;57.16;96832.66;6272215;28;20301;-36
2023/03/06 06:19:08;;;;;;;4.40;2.73;;;;;;;1.95;57.07;96828.59;6290748;28;20232;-40
2023/03/06 06:22:10;;;;;;;6.37;2.90;;;;;;;1.99;57.18;96821.91;6274124;28;20238;-41
2023/03/06 06:25:13;;;;;;;5.57;3.53;;;;;;;1.90;57.35;96804.78;6291152;28;20294;-36
2023/03/06 06:28:15;;;;;;;4.20;2.87;;;;;;;2.09;56.98;96832.78;6293027;28;20329;-36
2023/03/06 06:31:17;;;;;;;4.57;3.00;;;;;;;2.03;56.89;96809.97;6289826;28;20644;-45
2023/03/06 06:34:21;;;;;;;6.20;3.53;;;;;;;2.23;56.81;96830.91;6291497;28;20549;-41
2023/03/06 06:37:24;;;;;;;5.53;3.67;;;;;;;2.27;56.63;96829.47;6292650;28;20236;-36
2023/03/06 06:40:28;;;;;;;4.93;3.53;;;;;;;2.31;56.56;96830.66;6291513;28;20237;-38
2023/03/06 06:43:30;;;;;;;6.63;3.83;;;;;;;2.35;56.34;96826.59;6308206;28;20239;-40
2023/03/06 06:46:33;;;;;;;5.83;3.40;;;;;;;2.44;56.12;96821.91;6292524;28;20230;-36
2023/03/06 06:49:56;;;;;;;6.93;3.60;;;;;;;2.49;55.51;96822.88;6288887;28;20233;-38
2023/03/06 06:52:58;;;;;;;8.87;3.97;;;;;;;2.57;55.59;96820.00;6288788;28;20293;-37
2023/03/06 06:56:00;;;;;;;6.70;4.07;;;;;;;2.63;55.27;96818.34;6287871;28;20657;-36
2023/03/06 06:59:03;;;;;;;4.97;3.40;;;;;;;2.69;54.89;96812.22;6289623;28;20539;-36
2023/03/06 07:02:17;;;;;;;5.37;3.70;;;;;;;2.75;55.30;96806.09;6281327;28;20324;-40
2023/03/06 07:05:19;;;;;;;4.77;3.27;;;;;;;2.91;55.13;96819.78;6289740;28;20273;-42
2023/03/06 07:08:22;;;;;;;6.47;3.87;;;;;;;3.05;54.21;96811.56;6285335;28;20606;-38
2023/03/06 07:11:24;;;;;;;5.57;4.00;;;;;;;3.20;53.91;96813.03;6293521;28;20229;-37
2023/03/06 07:14:26;;;;;;;8.53;4.27;;;;;;;3.32;53.79;96811.31;6288480;28;20238;-42
2023/03/06 07:17:28;;;;;;;6.90;4.47;;;;;;;3.39;53.62;96817.31;6291258;28;20634;-40
2023/03/06 07:20:31;;;;;;;6.37;4.37;;;;;;;3.54;53.07;96803.81;6291129;28;20803;-37
2023/03/06 07:23:33;;;;;;;6.73;4.23;;;;;;;3.71;53.06;96809.31;6289757;28;20241;-39
2023/03/06 07:26:35;;;;;;;7.73;4.50;;;;;;;3.83;53.32;96808.34;6291572;28;20735;-40
2023/03/06 07:29:37;;;;;;;7.80;5.50;;;;;;;3.92;53.14;96800.16;6289842;28;20282;-42
2023/03/06 07:32:39;;;;;;;9.07;5.33;;;;;;;4.11;52.47;96804.38;6290121;28;20310;-36
2023/03/06 07:35:42;;;;;;;10.03;5.87;;;;;;;4.32;52.31;96806.53;6276929;28;20237;-37
2023/03/06 07:38:44;;;;;;;9.37;6.60;;;;;;;4.50;51.48;96810.16;6286211;28;20230;-40
2023/03/06 07:41:46;;;;;;;12.47;7.87;;;;;;;4.69;51.01;96811.72;6286744;28;20605;-38
2023/03/06 07:44:48;;;;;;;13.10;7.43;;;;;;;4.80;49.61;96808.28;6290021;28;20236;-37
2023/03/06 07:47:51;;;;;;;13.07;7.63;;;;;;;4.81;49.29;96801.97;6294371;28;20236;-41
2023/03/06 07:50:55;;;;;;;11.77;6.83;;;;;;;4.82;49.23;96802.78;6287526;28;20804;-41
2023/03/06 07:53:57;;;;;;;12.57;7.73;;;;;;;4.74;49.63;96808.38;6290480;28;20319;-38
2023/03/06 07:56:59;;;;;;;11.50;6.77;;;;;;;4.54;49.33;96777.03;6289324;28;20722;-46
2023/03/06 08:00:03;;;;;;;13.87;9.00;;;;;;;4.78;49.08;96799.81;6288901;28;20864;-36
2023/03/06 08:03:14;;;;;;;12.50;7.87;;;;;;;4.73;49.81;96796.22;6290066;28;20234;-36
2023/03/06 08:06:19;;;;;;;9.53;6.67;;;;;;;4.87;49.69;96801.06;6288371;28;20709;-36
2023/03/06 08:09:22;;;;;;;10.23;7.03;;;;;;;4.91;49.10;96785.59;6290738;28;20225;-36
2023/03/06 08:12:24;;;;;;;12.10;7.67;;;;;;;5.01;48.40;96803.50;6287260;28;20305;-36
2023/03/06 08:15:26;;;;;;;11.30;6.93;;;;;;;4.97;48.37;96792.59;6288709;28;20226;-36
2023/03/06 08:18:28;;;;;;;10.47;6.87;;;;;;;5.12;47.88;96802.69;6292006;28;20665;-36
2023/03/06 08:21:30;;;;;;;13.20;7.57;;;;;;;5.21;47.53;96809.25;6286829;28;20276;-36
2023/03/06 08:24:33;;;;;;;11.57;7.83;;;;;;;5.22;47.98;96807.41;6289600;28;20474;-36
2023/03/06 08:27:35;;;;;;;15.17;8.73;;;;;;;5.17;48.19;96798.38;6286030;28;20232;-36
2023/03/06 08:30:37;;;;;;;12.23;7.47;;;;;;;5.07;47.20;96798.09;6284850;28;20226;-36
2023/03/06 08:33:39;;;;;;;14.43;7.23;;;;;;;5.12;47.31;96789.50;6288843;28;20230;-36
2023/03/06 08:36:42;;;;;;;13.47;7.67;;;;;;;5.14;47.29;96787.44;6290168;28;20274;-36
2023/03/06 08:39:44;;;;;;;10.83;7.00;;;;;;;5.26;47.36;96785.59;6286518;28;20221;-36
2023/03/06 08:42:47;;;;;;;12.27;7.47;;;;;;;5.37;47.00;96786.66;6288250;28;20233;-36
2023/03/06 08:45:53;;;;;;;10.80;7.50;;;;;;;5.33;46.75;96781.03;6291910;28;20235;-36
2023/03/06 08:48:56;;;;;;;11.97;7.50;;;;;;;5.52;47.44;96783.53;6290211;28;20768;-36
2023/03/06 08:51:58;;;;;;;11.93;8.17;;;;;;;5.72;46.70;96783.19;6287180;28;20239;-36
2023/03/06 08:55:02;;;;;;;13.53;8.03;;;;;;;5.40;46.41;96741.28;6295648;28;20229;-36
2023/03/06 08:58:04;;;;;;;12.47;7.27;;;;;;;5.87;46.13;96773.72;6292856;28;20232;-36
2023/03/06 09:01:18;;;;;;;13.67;8.20;;;;;;;6.02;45.94;96775.88;6295585;28;20734;-36
2023/03/06 09:04:20;;;;;;;9.60;6.73;;;;;;;6.32;45.43;96775.66;6292701;28;20236;-36
2023/03/06 09:07:23;;;;;;;11.60;7.43;;;;;;;6.53;44.91;96773.38;6291087;28;20233;-37
2023/03/06 09:10:25;;;;;;;12.77;8.03;;;;;;;6.69;44.32;96773.38;6294390;28;20232;-36
2023/03/06 09:13:27;;;;;;;13.27;7.17;;;;;;;6.77;43.84;96777.50;6292731;28;20370;-36
2023/03/06 09:16:30;;;;;;;13.33;7.67;;;;;;;6.28;44.07;96713.69;6291258;28;20849;-36
2023/03/06 09:19:32;;;;;;;11.37;7.63;;;;;;;6.54;43.99;96762.53;6292189;28;20241;-36
2023/03/06 09:22:34;;;;;;;12.97;7.77;;;;;;;6.36;44.16;96728.38;6288258;28;20323;-36
2023/03/06 09:25:36;;;;;;;11.80;7.63;;;;;;;6.46;44.56;96760.31;6289048;28;20692;-36
2023/03/06 09:28:39;;;;;;;11.87;7.83;;;;;;;6.64;44.16;96759.25;6296226;28;20238;-36
2023/03/06 09:31:42;;;;;;;11.40;6.90;;;;;;;6.86;43.79;96762.81;6294267;28;20584;-36
2023/03/06 09:34:44;;;;;;;11.53;7.70;;;;;;;7.11;43.15;96764.25;6294778;28;20778;-36
2023/03/06 09:37:46;;;;;;;11.37;7.77;;;;;;;7.11;43.20;96759.75;6292907;28;20233;-36
2023/03/06 09:40:57;;;;;;;10.97;7.67;;;;;;;6.78;43.19;96755.28;6292413;28;20782;-36
2023/03/06 09:44:03;;;;;;;12.33;8.07;;;;;;;6.92;43.17;96745.16;6291873;28;20310;-36
2023/03/06 09:47:30;;;;;;;12.77;8.57;;;;;;;7.01;42.98;96778.16;6291977;28;20242;-36
2023/03/06 09:50:52;;;;;;;12.63;8.30;;;;;;;6.91;43.25;96756.81;6289746;28;20233;-36
2023/03/06 09:54:04;;;;;;;12.37;8.03;;;;;;;6.58;43.51;96715.25;6289055;28;20235;-36
2023/03/06 09:57:18;;;;;;;13.37;8.17;;;;;;;6.76;43.38;96760.00;6289670;28;20652;-36
2023/03/06 10:00:29;;;;;;;13.20;7.40;;;;;;;6.48;44.16;96715.88;6287839;28;20214;-36
2023/03/06 10:03:53;;;;;;;12.67;8.10;;;;;;;6.87;43.73;96759.13;6294179;28;20220;-36
2023/03/06 10:07:05;;;;;;;12.53;7.63;;;;;;;6.94;43.37;96762.41;6290607;28;20238;-36
2023/03/06 10:10:17;;;;;;;10.00;7.63;;;;;;;6.91;43.72;96756.81;6288837;28;20249;-36
2023/03/06 10:13:27;;;;;;;12.03;7.50;;;;;;;7.03;43.66;96751.41;6291188;28;20317;-36
2023/03/06 10:16:31;;;;;;;13.20;7.70;;;;;;;6.86;43.83;96749.59;6270490;28;20614;-36
2023/03/06 10:19:38;;;;;;;15.63;8.13;;;;;;;7.01;43.17;96756.16;6277116;28;20235;-35
2023/03/06 10:22:50;;;;;;;12.43;7.60;;;;;;;7.08;42.98;96748.84;6290611;28;20599;-36
2023/03/06 10:26:18;;;;;;;11.57;7.73;;;;;;;7.09;42.68;96743.31;6291791;28;20366;-36
2023/03/06 10:29:43;;;;;;;14.53;8.10;;;;;;;7.20;42.75;96737.13;6291881;28;20232;-36
2023/03/06 10:33:14;;;;;;;10.47;7.13;;;;;;;7.34;42.90;96742.06;6289753;28;20239;-36
2023/03/06 10:36:18;;;;;;;12.37;8.13;;;;;;;7.14;42.07;96706.31;6291615;28;20732;-36
2023/03/06 10:39:22;;;;;;;11.57;7.87;;;;;;;7.39;41.91;96735.00;6289967;28;20678;-36
2023/03/06 10:42:24;;;;;;;12.47;7.63;;;;;;;7.42;42.10;96733.72;6291368;28;20247;-35
2023/03/06 10:45:28;;;;;;;10.87;7.70;;;;;;;7.44;42.72;96724.47;6291355;28;20238;-36
2023/03/06 10:48:57;;;;;;;10.77;6.90;;;;;;;7.58;41.53;96721.44;6288095;28;20704;-36
2023/03/06 10:52:08;;;;;;;11.63;7.60;;;;;;;7.88;41.47;96713.06;6293478;28;20238;-36
2023/03/06 10:55:29;;;;;;;10.23;7.53;;;;;;;7.89;40.23;96701.44;6297693;28;20230;-36
2023/03/06 10:58:31;;;;;;;13.47;7.77;;;;;;;7.99;40.34;96704.19;6288852;28;21072;-36
2023/03/06 11:01:34;;;;;;;12.40;7.27;;;;;;;8.09;40.44;96706.16;6292437;28;20703;-36
2023/03/06 11:04:38;;;;;;;10.17;7.00;;;;;;;8.20;40.13;96695.38;6289094;28;20773;-36
2023/03/06 11:07:53;;;;;;;13.63;7.63;;;;;;;8.33;40.06;96693.38;6290203;28;20233;-36
2023/03/06 11:11:00;;;;;;;12.70;7.23;;;;;;;8.52;39.22;96682.19;6293730;28;20628;-36
2023/03/06 11:14:21;;;;;;;9.60;7.27;;;;;;;8.58;39.14;96682.22;6284658;28;20303;-36
2023/03/06 11:17:30;;;;;;;11.87;8.50;;;;;;;8.68;39.10;96679.66;6286348;28;20660;-36
2023/03/06 11:20:45;;;;;;;11.50;7.43;;;;;;;8.62;38.60;96677.97;6287217;28;20724;-36
2023/03/06 11:24:00;;;;;;;9.47;6.90;;;;;;;8.77;38.99;96668.31;6289917;28;20240;-36
2023/03/06 11:27:21;;;;;;;10.17;7.20;;;;;;;8.88;38.53;96666.50;6288507;28;20478;-36
2023/03/06 11:30:29;;;;;;;11.63;7.60;;;;;;;8.97;38.58;96664.19;6291386;28;20248;-36
2023/03/06 11:33:41;;;;;;;9.30;6.70;;;;;;;8.85;38.06;96623.72;6288501;28;20371;-36
2023/03/06 11:37:09;;;;;;;13.37;7.63;;;;;;;8.79;38.04;96652.09;6289297;28;20226;-36
2023/03/06 11:40:11;;;;;;;10.57;7.80;;;;;;;8.75;37.50;96649.16;6267000;28;20241;-36
2023/03/06 11:43:59;;;;;;;11.43;7.70;;;;;;;8.48;38.14;96645.78;6292725;28;20232;-36
2023/03/06 11:47:15;;;;;;;10.80;6.87;;;;;;;8.68;38.17;96634.50;6228944;28;20823;-36
2023/03/06 11:50:26;;;;;;;9.10;6.53;;;;;;;8.73;37.79;96638.00;6287385;28;20314;-36
2023/03/06 11:53:37;;;;;;;11.77;8.00;;;;;;;8.75;38.06;96633.22;6292439;28;20237;-36
2023/03/06 11:56:47;;;;;;;9.17;7.40;;;;;;;8.67;38.33;96624.91;6291296;28;20361;-36
2023/03/06 11:59:51;;;;;;;9.83;7.27;;;;;;;8.69;38.28;96622.81;6289243;28;20706;-36
2023/03/06 12:03:33;;;;;;;12.23;8.33;;;;;;;8.59;38.19;96606.84;6293358;28;20742;-36
2023/03/06 12:07:08;;;;;;;11.30;7.10;;;;;;;8.72;38.35;96612.50;6288248;28;20383;-34
2023/03/06 12:10:49;;;;;;;8.77;6.70;;;;;;;8.96;38.64;96614.75;6285562;28;21149;-36
2023/03/06 12:13:52;;;;;;;10.70;7.93;;;;;;;8.86;38.48;96607.53;6286849;28;20234;-34
2023/03/06 12:17:24;;;;;;;10.30;6.67;;;;;;;8.57;38.81;96607.09;6287971;28;20242;-34
2023/03/06 12:21:03;;;;;;;11.83;7.63;;;;;;;8.69;39.36;96596.28;6265181;28;20233;-34
2023/03/06 12:24:28;;;;;;;13.50;8.40;;;;;;;8.71;39.14;96594.16;6289090;28;20233;-33
2023/03/06 12:28:04;;;;;;;12.40;8.03;;;;;;;8.75;38.99;96595.25;6288233;28;20733;-34
2023/03/06 12:31:40;;;;;;;11.00;7.77;;;;;;;8.63;38.50;96586.69;6294912;28;20227;-36
2023/03/06 12:35:03;;;;;;;12.83;7.57;;;;;;;8.67;39.07;96588.56;6294874;28;20234;-36
2023/03/06 12:38:31;;;;;;;11.47;7.30;;;;;;;8.77;40.31;96583.31;6296240;28;20225;-36
2023/03/06 12:41:48;;;;;;;14.67;8.20;;;;;;;8.89;39.53;96583.13;6294287;28;20678;-34
2023/03/06 12:45:20;;;;;;;12.27;8.10;;;;;;;8.87;39.11;96571.16;6296567;28;20222;-34
2023/03/06 12:48:26;;;;;;;11.77;7.93;;;;;;;8.88;39.44;96565.59;6291835;28;20291;-34
2023/03/06 12:51:30;;;;;;;10.23;7.83;;;;;;;8.88;39.66;96562.13;6292612;28;20239;-34
2023/03/06 12:54:36;;;;;;;14.03;8.70;;;;;;;8.74;38.71;96565.25;6290102;28;20594;-34
2023/03/06 12:57:39;;;;;;;12.67;8.10;;;;;;;8.77;38.92;96566.59;6291885;28;20228;-34
2023/03/06 13:01:07;;;;;;;12.33;7.90;;;;;;;8.78;38.99;96568.19;6289871;28;20245;-34
2023/03/06 13:04:30;;;;;;;12.27;8.87;;;;;;;8.90;39.12;96552.03;6262404;28;20244;-34
2023/03/06 13:07:32;;;;;;;20.57;12.27;;;;;;;8.97;38.45;96549.97;6289240;28;20316;-34
2023/03/06 13:10:37;;;;;;;13.57;8.40;;;;;;;8.85;38.37;96539.53;6292642;28;20674;-36
2023/03/06 13:13:45;;;;;;;15.10;8.93;;;;;;;9.04;37.93;96553.97;6293209;28;20573;-36
2023/03/06 13:16:47;;;;;;;12.67;8.47;;;;;;;9.07;38.45;96555.31;6291739;28;20306;-34
2023/03/06 13:20:15;;;;;;;13.57;9.17;;;;;;;9.01;38.72;96549.19;6289094;28;20230;-34
2023/03/06 13:23:32;;;;;;;12.60;8.60;;;;;;;8.97;38.90;96552.63;6296908;28;20232;-36
2023/03/06 13:26:34;;;;;;;12.30;7.83;;;;;;;8.91;38.89;96551.78;6291672;28;20286;-34
2023/03/06 13:29:36;;;;;;;9.43;7.40;;;;;;;8.85;39.21;96558.13;6296018;28;20593;-34
2023/03/06 13:32:38;;;;;;;13.53;8.80;;;;;;;8.80;39.87;96563.41;6294878;28;20366;-34
2023/03/06 13:35:40;;;;;;;15.10;8.90;;;;;;;8.64;40.10;96551.13;6294230;28;20233;-34
2023/03/06 13:38:42;;;;;;;12.43;8.40;;;;;;;8.59;40.06;96545.78;6293820;28;20228;-34
2023/03/06 13:41:58;;;;;;;11.93;9.23;;;;;;;8.58;39.89;96550.28;6292660;28;20289;-34
2023/03/06 13:45:15;;;;;;;14.20;8.67;;;;;;;8.58;40.54;96557.47;6294631;28;20230;-34
2023/03/06 13:48:31;;;;;;;12.43;8.30;;;;;;;8.55;41.05;96550.78;6290207;28;20265;-35
2023/03/06 13:51:51;;;;;;;15.00;9.33;;;;;;;8.55;41.10;96542.03;6291778;28;20221;-35
2023/03/06 13:55:18;;;;;;;13.77;8.90;;;;;;;8.40;41.28;96537.44;6289447;28;20225;-35
2023/03/06 13:58:39;;;;;;;13.03;7.93;;;;;;;8.43;40.38;96540.38;6291387;28;20238;-35
2023/03/06 14:01:49;;;;;;;12.60;9.00;;;;;;;8.38;38.99;96513.00;6291236;28;20242;-43
2023/03/06 14:04:53;;;;;;;11.87;8.57;;;;;;;8.31;40.40;96496.47;6288659;28;20780;-34
2023/03/06 14:08:16;;;;;;;11.87;8.37;;;;;;;8.55;41.08;96544.69;6290909;28;20230;-34
2023/03/06 14:11:20;;;;;;;11.90;8.37;;;;;;;8.65;41.47;96542.88;6291142;28;20404;-34
2023/03/06 14:14:38;;;;;;;14.57;9.20;;;;;;;8.62;41.69;96543.41;6291501;28;20237;-34
2023/03/06 14:17:51;;;;;;;13.53;8.97;;;;;;;8.59;40.58;96532.50;6290569;28;20229;-39
2023/03/06 14:20:58;;;;;;;13.43;9.13;;;;;;;8.50;39.55;96535.63;6276722;28;20627;-34
2023/03/06 14:24:03;;;;;;;13.33;8.90;;;;;;;8.61;40.17;96541.00;6265967;28;20314;-34
2023/03/06 14:27:05;;;;;;;12.87;9.17;;;;;;;8.29;38.32;96504.69;6291146;28;20222;-34
2023/03/06 14:30:12;;;;;;;16.83;10.30;;;;;;;8.36;38.86;96536.31;6294143;28;20293;-34
2023/03/06 14:33:31;;;;;;;14.03;9.60;;;;;;;8.38;37.98;96535.03;6291440;28;20218;-34
2023/03/06 14:36:41;;;;;;;15.93;9.43;;;;;;;8.26;38.05;96552.94;6278690;28;20242;-34
2023/03/06 14:39:44;;;;;;;13.93;8.97;;;;;;;8.40;38.02;96554.16;6290690;28;20237;-34
2023/03/06 14:42:46;;;;;;;14.40;9.83;;;;;;;8.37;38.01;96551.19;6289865;28;20315;-34
2023/03/06 14:45:49;;;;;;;13.20;9.33;;;;;;;8.31;37.88;96542.38;6293355;28;20325;-35
2023/03/06 14:48:51;;;;;;;15.80;9.93;;;;;;;8.31;37.64;96550.34;6289289;28;20737;-37